sensor_id;sensor_type;location;lat;lon;timestamp;P1;durP1;ratioP1;P2;durP2;ratioP2
23800;SDS011;12081;48.614;10.226;2023-11-21T00:02:39;8.23;;;2.53;;
23800;SDS011;12081;48.614;10.226;2023-11-21T00:05:24;8.67;;;2.10;;
23800;SDS011;12081;48.614;10.226;2023-11-21T00:08:08;9.07;;;2.80;;
23800;SDS011;12081;48.614;10.226;2023-11-21T00:10:53;10.60;;;2.50;;
23800;SDS011;12081;48.614;10.226;2023-11-21T00:13:38;10.53;;;2.30;;
23800;SDS011;12081;48.614;10.226;2023-11-21T00:16:23;6.60;;;2.27;;
23800;SDS011;12081;48.614;10.226;2023-11-21T00:19:09;12.03;;;2.77;;
23800;SDS011;12081;48.614;10.226;2023-11-21T00:21:53;7.03;;;2.37;;
23800;SDS011;12081;48.614;10.226;2023-11-21T00:24:37;5.60;;;2.00;;
23800;SDS011;12081;48.614;10.226;2023-11-21T00:27:21;4.77;;;1.90;;
23800;SDS011;12081;48.614;10.226;2023-11-21T00:30:05;5.07;;;1.53;;
23800;SDS011;12081;48.614;10.226;2023-11-21T00:32:50;6.63;;;2.03;;
23800;SDS011;12081;48.614;10.226;2023-11-21T00:35:35;7.90;;;2.43;;
23800;SDS011;12081;48.614;10.226;2023-11-21T00:38:19;10.67;;;2.23;;
23800;SDS011;12081;48.614;10.226;2023-11-21T00:41:03;5.83;;;1.87;;
23800;SDS011;12081;48.614;10.226;2023-11-21T00:43:47;8.27;;;1.80;;
23800;SDS011;12081;48.614;10.226;2023-11-21T00:46:31;9.13;;;2.20;;
23800;SDS011;12081;48.614;10.226;2023-11-21T00:49:15;10.20;;;2.17;;
23800;SDS011;12081;48.614;10.226;2023-11-21T00:52:00;7.47;;;1.37;;
23800;SDS011;12081;48.614;10.226;2023-11-21T00:54:44;5.07;;;1.63;;
23800;SDS011;12081;48.614;10.226;2023-11-21T00:57:28;8.60;;;2.20;;
23800;SDS011;12081;48.614;10.226;2023-11-21T01:00:13;9.13;;;2.23;;
23800;SDS011;12081;48.614;10.226;2023-11-21T01:03:00;7.13;;;1.90;;
23800;SDS011;12081;48.614;10.226;2023-11-21T01:05:44;9.80;;;1.93;;
23800;SDS011;12081;48.614;10.226;2023-11-21T01:08:29;8.57;;;1.77;;
23800;SDS011;12081;48.614;10.226;2023-11-21T01:11:14;8.13;;;1.67;;
23800;SDS011;12081;48.614;10.226;2023-11-21T01:13:58;10.37;;;2.37;;
23800;SDS011;12081;48.614;10.226;2023-11-21T01:16:43;9.20;;;2.50;;
23800;SDS011;12081;48.614;10.226;2023-11-21T01:19:27;7.70;;;2.27;;
23800;SDS011;12081;48.614;10.226;2023-11-21T01:22:12;4.80;;;1.90;;
23800;SDS011;12081;48.614;10.226;2023-11-21T01:24:56;5.83;;;1.77;;
23800;SDS011;12081;48.614;10.226;2023-11-21T01:27:41;7.30;;;2.53;;
23800;SDS011;12081;48.614;10.226;2023-11-21T01:30:27;9.60;;;2.40;;
23800;SDS011;12081;48.614;10.226;2023-11-21T01:33:11;9.57;;;2.57;;
23800;SDS011;12081;48.614;10.226;2023-11-21T01:35:55;6.83;;;2.13;;
23800;SDS011;12081;48.614;10.226;2023-11-21T01:38:40;10.50;;;2.60;;
23800;SDS011;12081;48.614;10.226;2023-11-21T01:41:24;7.37;;;1.73;;
23800;SDS011;12081;48.614;10.226;2023-11-21T01:44:10;8.90;;;2.20;;
23800;SDS011;12081;48.614;10.226;2023-11-21T01:46:54;7.60;;;2.20;;
23800;SDS011;12081;48.614;10.226;2023-11-21T01:49:43;6.93;;;2.27;;
23800;SDS011;12081;48.614;10.226;2023-11-21T01:52:28;6.40;;;2.23;;
23800;SDS011;12081;48.614;10.226;2023-11-21T01:55:13;7.10;;;2.07;;
23800;SDS011;12081;48.614;10.226;2023-11-21T01:58:02;10.10;;;2.10;;
23800;SDS011;12081;48.614;10.226;2023-11-21T02:00:46;9.47;;;2.30;;
23800;SDS011;12081;48.614;10.226;2023-11-21T02:03:34;8.27;;;2.70;;
23800;SDS011;12081;48.614;10.226;2023-11-21T02:06:18;8.90;;;2.23;;
23800;SDS011;12081;48.614;10.226;2023-11-21T02:09:03;11.10;;;2.17;;
23800;SDS011;12081;48.614;10.226;2023-11-21T02:11:48;12.80;;;2.47;;
23800;SDS011;12081;48.614;10.226;2023-11-21T02:14:32;12.93;;;2.63;;
23800;SDS011;12081;48.614;10.226;2023-11-21T02:17:16;8.13;;;2.30;;
23800;SDS011;12081;48.614;10.226;2023-11-21T02:20:02;8.90;;;2.70;;
23800;SDS011;12081;48.614;10.226;2023-11-21T02:22:50;10.57;;;2.57;;
23800;SDS011;12081;48.614;10.226;2023-11-21T02:25:44;15.80;;;2.60;;
23800;SDS011;12081;48.614;10.226;2023-11-21T02:28:28;11.27;;;2.50;;
23800;SDS011;12081;48.614;10.226;2023-11-21T02:31:12;8.37;;;2.70;;
23800;SDS011;12081;48.614;10.226;2023-11-21T02:33:56;6.53;;;2.53;;
23800;SDS011;12081;48.614;10.226;2023-11-21T02:36:40;11.13;;;3.13;;
23800;SDS011;12081;48.614;10.226;2023-11-21T02:39:25;8.93;;;2.63;;
23800;SDS011;12081;48.614;10.226;2023-11-21T02:42:10;7.07;;;2.60;;
23800;SDS011;12081;48.614;10.226;2023-11-21T02:44:54;7.53;;;3.03;;
23800;SDS011;12081;48.614;10.226;2023-11-21T02:47:38;8.83;;;3.37;;
23800;SDS011;12081;48.614;10.226;2023-11-21T02:50:23;8.90;;;2.57;;
23800;SDS011;12081;48.614;10.226;2023-11-21T02:53:07;7.60;;;2.53;;
23800;SDS011;12081;48.614;10.226;2023-11-21T02:55:51;6.17;;;2.63;;
23800;SDS011;12081;48.614;10.226;2023-11-21T02:58:35;13.77;;;2.93;;
23800;SDS011;12081;48.614;10.226;2023-11-21T03:01:19;6.73;;;2.50;;
23800;SDS011;12081;48.614;10.226;2023-11-21T03:04:03;10.00;;;2.63;;
23800;SDS011;12081;48.614;10.226;2023-11-21T03:06:48;10.83;;;2.70;;
23800;SDS011;12081;48.614;10.226;2023-11-21T03:09:32;9.73;;;2.70;;
23800;SDS011;12081;48.614;10.226;2023-11-21T03:12:16;11.37;;;3.30;;
23800;SDS011;12081;48.614;10.226;2023-11-21T03:15:00;4.47;;;2.00;;
23800;SDS011;12081;48.614;10.226;2023-11-21T03:17:45;7.40;;;2.70;;
23800;SDS011;12081;48.614;10.226;2023-11-21T03:20:29;8.23;;;2.80;;
23800;SDS011;12081;48.614;10.226;2023-11-21T03:23:13;8.40;;;2.10;;
23800;SDS011;12081;48.614;10.226;2023-11-21T03:25:57;10.00;;;2.57;;
23800;SDS011;12081;48.614;10.226;2023-11-21T03:28:43;6.20;;;2.30;;
23800;SDS011;12081;48.614;10.226;2023-11-21T06:31:37;3.33;;;2.00;;
23800;SDS011;12081;48.614;10.226;2023-11-21T06:34:21;4.03;;;1.80;;
23800;SDS011;12081;48.614;10.226;2023-11-21T06:37:06;6.17;;;3.40;;
23800;SDS011;12081;48.614;10.226;2023-11-21T06:39:50;5.20;;;2.27;;
23800;SDS011;12081;48.614;10.226;2023-11-21T06:42:35;7.03;;;2.33;;
23800;SDS011;12081;48.614;10.226;2023-11-21T06:45:21;3.67;;;2.07;;
23800;SDS011;12081;48.614;10.226;2023-11-21T06:48:06;4.90;;;1.93;;
23800;SDS011;12081;48.614;10.226;2023-11-21T06:50:50;4.30;;;1.90;;
23800;SDS011;12081;48.614;10.226;2023-11-21T06:53:36;2.90;;;1.90;;
23800;SDS011;12081;48.614;10.226;2023-11-21T06:56:21;3.90;;;2.37;;
23800;SDS011;12081;48.614;10.226;2023-11-21T06:59:05;4.97;;;2.20;;
23800;SDS011;12081;48.614;10.226;2023-11-21T07:01:49;4.90;;;2.07;;
23800;SDS011;12081;48.614;10.226;2023-11-21T07:04:34;3.23;;;1.77;;
23800;SDS011;12081;48.614;10.226;2023-11-21T07:07:19;6.53;;;2.00;;
23800;SDS011;12081;48.614;10.226;2023-11-21T07:10:03;4.80;;;1.87;;
23800;SDS011;12081;48.614;10.226;2023-11-21T07:12:49;6.33;;;1.87;;
23800;SDS011;12081;48.614;10.226;2023-11-21T07:15:35;4.60;;;1.60;;
23800;SDS011;12081;48.614;10.226;2023-11-21T07:18:19;2.57;;;1.40;;
23800;SDS011;12081;48.614;10.226;2023-11-21T07:21:03;2.13;;;1.47;;
23800;SDS011;12081;48.614;10.226;2023-11-21T07:23:47;2.57;;;1.30;;
23800;SDS011;12081;48.614;10.226;2023-11-21T07:26:31;3.03;;;1.70;;
23800;SDS011;12081;48.614;10.226;2023-11-21T07:29:19;3.60;;;1.63;;
23800;SDS011;12081;48.614;10.226;2023-11-21T07:32:03;2.80;;;1.33;;
23800;SDS011;12081;48.614;10.226;2023-11-21T07:34:47;5.37;;;2.20;;
23800;SDS011;12081;48.614;10.226;2023-11-21T07:37:31;4.90;;;1.50;;
23800;SDS011;12081;48.614;10.226;2023-11-21T07:40:16;3.63;;;1.03;;
23800;SDS011;12081;48.614;10.226;2023-11-21T07:43:00;3.77;;;1.53;;
23800;SDS011;12081;48.614;10.226;2023-11-21T07:45:45;3.97;;;1.10;;
23800;SDS011;12081;48.614;10.226;2023-11-21T07:48:29;3.33;;;1.37;;
23800;SDS011;12081;48.614;10.226;2023-11-21T07:51:15;4.00;;;1.23;;
23800;SDS011;12081;48.614;10.226;2023-11-21T07:54:00;4.90;;;1.37;;
23800;SDS011;12081;48.614;10.226;2023-11-21T07:56:44;3.43;;;2.00;;
23800;SDS011;12081;48.614;10.226;2023-11-21T07:59:28;2.60;;;1.27;;
23800;SDS011;12081;48.614;10.226;2023-11-21T08:02:12;3.07;;;1.00;;
23800;SDS011;12081;48.614;10.226;2023-11-21T08:04:56;3.23;;;1.40;;
23800;SDS011;12081;48.614;10.226;2023-11-21T08:07:40;7.57;;;3.33;;
23800;SDS011;12081;48.614;10.226;2023-11-21T08:10:24;7.00;;;3.97;;
23800;SDS011;12081;48.614;10.226;2023-11-21T08:13:09;3.97;;;1.93;;
23800;SDS011;12081;48.614;10.226;2023-11-21T08:15:58;12.10;;;6.30;;
23800;SDS011;12081;48.614;10.226;2023-11-21T08:18:46;13.37;;;10.47;;
23800;SDS011;12081;48.614;10.226;2023-11-21T08:21:30;8.33;;;6.00;;
23800;SDS011;12081;48.614;10.226;2023-11-21T08:24:14;5.60;;;4.03;;
23800;SDS011;12081;48.614;10.226;2023-11-21T08:26:59;2.23;;;1.77;;
23800;SDS011;12081;48.614;10.226;2023-11-21T08:29:44;2.43;;;1.30;;
23800;SDS011;12081;48.614;10.226;2023-11-21T08:32:28;6.57;;;1.70;;
23800;SDS011;12081;48.614;10.226;2023-11-21T08:35:16;3.47;;;1.63;;
23800;SDS011;12081;48.614;10.226;2023-11-21T08:38:02;2.10;;;1.27;;
23800;SDS011;12081;48.614;10.226;2023-11-21T08:40:47;2.30;;;1.27;;
23800;SDS011;12081;48.614;10.226;2023-11-21T08:43:31;2.53;;;1.00;;
23800;SDS011;12081;48.614;10.226;2023-11-21T08:46:15;2.07;;;0.90;;
23800;SDS011;12081;48.614;10.226;2023-11-21T08:49:01;2.23;;;0.80;;
23800;SDS011;12081;48.614;10.226;2023-11-21T08:51:45;1.70;;;1.00;;
23800;SDS011;12081;48.614;10.226;2023-11-21T08:54:29;2.83;;;0.77;;
23800;SDS011;12081;48.614;10.226;2023-11-21T08:57:14;2.80;;;0.93;;
23800;SDS011;12081;48.614;10.226;2023-11-21T08:59:59;3.07;;;0.93;;
23800;SDS011;12081;48.614;10.226;2023-11-21T09:02:43;3.47;;;0.90;;
23800;SDS011;12081;48.614;10.226;2023-11-21T09:05:28;2.63;;;1.10;;
23800;SDS011;12081;48.614;10.226;2023-11-21T09:08:12;1.63;;;0.80;;
23800;SDS011;12081;48.614;10.226;2023-11-21T09:10:56;2.03;;;0.70;;
23800;SDS011;12081;48.614;10.226;2023-11-21T09:13:42;1.60;;;0.67;;
23800;SDS011;12081;48.614;10.226;2023-11-21T09:16:26;2.10;;;0.90;;
23800;SDS011;12081;48.614;10.226;2023-11-21T09:19:10;1.73;;;0.90;;
23800;SDS011;12081;48.614;10.226;2023-11-21T09:21:55;3.00;;;0.70;;
23800;SDS011;12081;48.614;10.226;2023-11-21T09:24:41;2.20;;;1.10;;
23800;SDS011;12081;48.614;10.226;2023-11-21T09:27:25;12.40;;;6.03;;
23800;SDS011;12081;48.614;10.226;2023-11-21T09:30:10;2.20;;;0.97;;
23800;SDS011;12081;48.614;10.226;2023-11-21T09:32:54;3.13;;;1.37;;
23800;SDS011;12081;48.614;10.226;2023-11-21T09:35:39;1.23;;;0.80;;
23800;SDS011;12081;48.614;10.226;2023-11-21T09:38:23;2.30;;;0.63;;
23800;SDS011;12081;48.614;10.226;2023-11-21T09:41:43;0.63;;;0.50;;
23800;SDS011;12081;48.614;10.226;2023-11-21T09:47:31;8.23;;;3.23;;
23800;SDS011;12081;48.614;10.226;2023-11-21T09:50:19;16.47;;;5.33;;
23800;SDS011;12081;48.614;10.226;2023-11-21T09:53:11;11.57;;;3.87;;
23800;SDS011;12081;48.614;10.226;2023-11-21T09:56:01;1.03;;;0.63;;
23800;SDS011;12081;48.614;10.226;2023-11-21T09:58:46;1.70;;;0.50;;
23800;SDS011;12081;48.614;10.226;2023-11-21T10:01:30;2.20;;;0.60;;
23800;SDS011;12081;48.614;10.226;2023-11-21T10:04:15;1.20;;;0.70;;
23800;SDS011;12081;48.614;10.226;2023-11-21T10:07:01;0.97;;;0.50;;
23800;SDS011;12081;48.614;10.226;2023-11-21T10:09:47;1.10;;;0.60;;
23800;SDS011;12081;48.614;10.226;2023-11-21T10:12:31;1.77;;;0.53;;
23800;SDS011;12081;48.614;10.226;2023-11-21T10:15:16;1.80;;;0.93;;
23800;SDS011;12081;48.614;10.226;2023-11-21T10:18:02;3.43;;;0.80;;
23800;SDS011;12081;48.614;10.226;2023-11-21T10:20:49;2.13;;;0.77;;
23800;SDS011;12081;48.614;10.226;2023-11-21T10:23:37;3.73;;;1.00;;
23800;SDS011;12081;48.614;10.226;2023-11-21T10:26:21;1.17;;;0.60;;
23800;SDS011;12081;48.614;10.226;2023-11-21T10:29:07;1.20;;;0.50;;
23800;SDS011;12081;48.614;10.226;2023-11-21T10:31:51;1.43;;;0.40;;
23800;SDS011;12081;48.614;10.226;2023-11-21T10:34:38;0.60;;;0.30;;
23800;SDS011;12081;48.614;10.226;2023-11-21T10:37:24;1.07;;;0.50;;
23800;SDS011;12081;48.614;10.226;2023-11-21T10:40:09;2.03;;;0.90;;
23800;SDS011;12081;48.614;10.226;2023-11-21T10:43:05;1.03;;;0.30;;
23800;SDS011;12081;48.614;10.226;2023-11-21T10:45:52;2.50;;;0.50;;
23800;SDS011;12081;48.614;10.226;2023-11-21T10:48:36;1.33;;;0.60;;
23800;SDS011;12081;48.614;10.226;2023-11-21T10:51:21;1.57;;;0.80;;
23800;SDS011;12081;48.614;10.226;2023-11-21T10:54:07;0.57;;;0.33;;
23800;SDS011;12081;48.614;10.226;2023-11-21T10:56:59;2.13;;;0.70;;
23800;SDS011;12081;48.614;10.226;2023-11-21T10:59:46;2.43;;;0.70;;
23800;SDS011;12081;48.614;10.226;2023-11-21T11:02:34;0.47;;;0.37;;
23800;SDS011;12081;48.614;10.226;2023-11-21T11:05:19;1.60;;;0.60;;
23800;SDS011;12081;48.614;10.226;2023-11-21T11:08:05;2.70;;;1.00;;
23800;SDS011;12081;48.614;10.226;2023-11-21T11:10:51;4.77;;;1.50;;
23800;SDS011;12081;48.614;10.226;2023-11-21T11:13:37;2.47;;;0.93;;
23800;SDS011;12081;48.614;10.226;2023-11-21T11:16:22;3.50;;;1.33;;
23800;SDS011;12081;48.614;10.226;2023-11-21T11:19:09;4.30;;;1.00;;
23800;SDS011;12081;48.614;10.226;2023-11-21T11:22:08;1.60;;;0.70;;
23800;SDS011;12081;48.614;10.226;2023-11-21T11:25:03;1.97;;;0.80;;
23800;SDS011;12081;48.614;10.226;2023-11-21T11:28:11;2.17;;;0.50;;
23800;SDS011;12081;48.614;10.226;2023-11-21T11:34:22;0.90;;;0.60;;
23800;SDS011;12081;48.614;10.226;2023-11-21T11:37:13;0.70;;;0.47;;
23800;SDS011;12081;48.614;10.226;2023-11-21T11:39:58;1.87;;;0.50;;
23800;SDS011;12081;48.614;10.226;2023-11-21T11:42:56;0.90;;;0.60;;
23800;SDS011;12081;48.614;10.226;2023-11-21T11:45:48;1.63;;;0.53;;
23800;SDS011;12081;48.614;10.226;2023-11-21T11:48:38;3.03;;;1.20;;
23800;SDS011;12081;48.614;10.226;2023-11-21T11:51:23;0.73;;;0.60;;
23800;SDS011;12081;48.614;10.226;2023-11-21T11:54:07;1.53;;;0.70;;
23800;SDS011;12081;48.614;10.226;2023-11-21T11:56:51;1.90;;;0.60;;
23800;SDS011;12081;48.614;10.226;2023-11-21T12:00:06;4.37;;;0.90;;
23800;SDS011;12081;48.614;10.226;2023-11-21T12:03:08;1.83;;;0.70;;
23800;SDS011;12081;48.614;10.226;2023-11-21T12:05:53;1.03;;;0.60;;
23800;SDS011;12081;48.614;10.226;2023-11-21T12:08:41;1.90;;;0.70;;
23800;SDS011;12081;48.614;10.226;2023-11-21T12:11:32;0.70;;;0.50;;
23800;SDS011;12081;48.614;10.226;2023-11-21T12:14:16;1.33;;;0.80;;
23800;SDS011;12081;48.614;10.226;2023-11-21T12:17:01;1.83;;;0.70;;
23800;SDS011;12081;48.614;10.226;2023-11-21T12:19:48;1.47;;;1.00;;
23800;SDS011;12081;48.614;10.226;2023-11-21T12:22:32;1.30;;;0.60;;
23800;SDS011;12081;48.614;10.226;2023-11-21T12:25:23;1.37;;;0.53;;
23800;SDS011;12081;48.614;10.226;2023-11-21T12:28:12;0.60;;;0.60;;
23800;SDS011;12081;48.614;10.226;2023-11-21T12:30:57;3.27;;;0.80;;
23800;SDS011;12081;48.614;10.226;2023-11-21T12:33:42;1.57;;;0.67;;
23800;SDS011;12081;48.614;10.226;2023-11-21T12:36:26;0.50;;;0.30;;
23800;SDS011;12081;48.614;10.226;2023-11-21T12:39:12;1.63;;;0.70;;
23800;SDS011;12081;48.614;10.226;2023-11-21T12:41:58;2.53;;;0.60;;
23800;SDS011;12081;48.614;10.226;2023-11-21T12:44:42;0.93;;;0.50;;
23800;SDS011;12081;48.614;10.226;2023-11-21T12:47:29;0.80;;;0.50;;
23800;SDS011;12081;48.614;10.226;2023-11-21T12:50:13;0.63;;;0.50;;
23800;SDS011;12081;48.614;10.226;2023-11-21T12:55:46;1.63;;;0.70;;
23800;SDS011;12081;48.614;10.226;2023-11-21T12:58:33;1.53;;;0.90;;
23800;SDS011;12081;48.614;10.226;2023-11-21T13:01:19;3.03;;;1.53;;
23800;SDS011;12081;48.614;10.226;2023-11-21T13:04:07;2.47;;;1.07;;
23800;SDS011;12081;48.614;10.226;2023-11-21T13:06:54;1.23;;;0.67;;
23800;SDS011;12081;48.614;10.226;2023-11-21T13:09:40;1.30;;;1.00;;
23800;SDS011;12081;48.614;10.226;2023-11-21T13:12:24;0.70;;;0.40;;
23800;SDS011;12081;48.614;10.226;2023-11-21T13:15:09;0.87;;;0.43;;
23800;SDS011;12081;48.614;10.226;2023-11-21T13:17:53;1.30;;;0.80;;
23800;SDS011;12081;48.614;10.226;2023-11-21T13:20:40;0.67;;;0.47;;
23800;SDS011;12081;48.614;10.226;2023-11-21T13:23:24;0.77;;;0.53;;
23800;SDS011;12081;48.614;10.226;2023-11-21T13:26:10;1.20;;;0.60;;
23800;SDS011;12081;48.614;10.226;2023-11-21T13:28:54;1.83;;;0.63;;
23800;SDS011;12081;48.614;10.226;2023-11-21T13:31:40;0.93;;;0.60;;
23800;SDS011;12081;48.614;10.226;2023-11-21T13:34:24;0.60;;;0.50;;
23800;SDS011;12081;48.614;10.226;2023-11-21T13:37:11;0.77;;;0.47;;
23800;SDS011;12081;48.614;10.226;2023-11-21T13:39:56;1.40;;;0.40;;
23800;SDS011;12081;48.614;10.226;2023-11-21T13:42:41;1.20;;;0.83;;
23800;SDS011;12081;48.614;10.226;2023-11-21T13:45:27;0.93;;;0.50;;
23800;SDS011;12081;48.614;10.226;2023-11-21T13:48:12;3.20;;;0.77;;
23800;SDS011;12081;48.614;10.226;2023-11-21T13:51:03;1.27;;;0.93;;
23800;SDS011;12081;48.614;10.226;2023-11-21T13:54:01;2.97;;;1.10;;
23800;SDS011;12081;48.614;10.226;2023-11-21T13:56:46;2.90;;;1.00;;
23800;SDS011;12081;48.614;10.226;2023-11-21T13:59:30;1.83;;;1.10;;
23800;SDS011;12081;48.614;10.226;2023-11-21T14:02:15;2.20;;;0.50;;
23800;SDS011;12081;48.614;10.226;2023-11-21T14:05:03;2.43;;;0.70;;
23800;SDS011;12081;48.614;10.226;2023-11-21T14:07:52;1.70;;;0.90;;
23800;SDS011;12081;48.614;10.226;2023-11-21T14:10:37;1.77;;;1.00;;
23800;SDS011;12081;48.614;10.226;2023-11-21T14:13:26;1.23;;;0.93;;
23800;SDS011;12081;48.614;10.226;2023-11-21T14:16:10;1.60;;;0.70;;
23800;SDS011;12081;48.614;10.226;2023-11-21T14:18:55;0.53;;;0.40;;
23800;SDS011;12081;48.614;10.226;2023-11-21T14:21:45;1.70;;;0.70;;
23800;SDS011;12081;48.614;10.226;2023-11-21T14:24:29;2.23;;;0.67;;
23800;SDS011;12081;48.614;10.226;2023-11-21T14:27:14;4.13;;;0.90;;
23800;SDS011;12081;48.614;10.226;2023-11-21T14:29:58;2.10;;;0.80;;
23800;SDS011;12081;48.614;10.226;2023-11-21T14:32:42;1.20;;;0.70;;
23800;SDS011;12081;48.614;10.226;2023-11-21T14:35:26;2.60;;;0.63;;
23800;SDS011;12081;48.614;10.226;2023-11-21T14:38:11;0.83;;;0.43;;
23800;SDS011;12081;48.614;10.226;2023-11-21T14:40:58;0.50;;;0.43;;
23800;SDS011;12081;48.614;10.226;2023-11-21T14:43:42;2.73;;;0.40;;
23800;SDS011;12081;48.614;10.226;2023-11-21T14:46:29;2.73;;;1.33;;
23800;SDS011;12081;48.614;10.226;2023-11-21T14:49:13;2.60;;;1.00;;
23800;SDS011;12081;48.614;10.226;2023-11-21T14:52:03;4.60;;;1.00;;
23800;SDS011;12081;48.614;10.226;2023-11-21T14:54:51;5.73;;;1.80;;
23800;SDS011;12081;48.614;10.226;2023-11-21T14:57:48;2.53;;;0.70;;
23800;SDS011;12081;48.614;10.226;2023-11-21T15:00:33;0.90;;;0.67;;
23800;SDS011;12081;48.614;10.226;2023-11-21T15:03:19;1.17;;;0.60;;
23800;SDS011;12081;48.614;10.226;2023-11-21T15:06:15;0.90;;;0.47;;
23800;SDS011;12081;48.614;10.226;2023-11-21T15:09:03;0.43;;;0.40;;
23800;SDS011;12081;48.614;10.226;2023-11-21T15:11:51;0.70;;;0.47;;
23800;SDS011;12081;48.614;10.226;2023-11-21T15:14:46;2.90;;;1.30;;
23800;SDS011;12081;48.614;10.226;2023-11-21T15:17:36;6.37;;;3.27;;
23800;SDS011;12081;48.614;10.226;2023-11-21T15:20:20;7.73;;;3.90;;
23800;SDS011;12081;48.614;10.226;2023-11-21T15:23:06;5.07;;;2.27;;
23800;SDS011;12081;48.614;10.226;2023-11-21T15:25:50;3.57;;;1.00;;
23800;SDS011;12081;48.614;10.226;2023-11-21T15:28:34;4.53;;;2.30;;
23800;SDS011;12081;48.614;10.226;2023-11-21T15:31:19;6.33;;;3.30;;
23800;SDS011;12081;48.614;10.226;2023-11-21T15:34:08;5.23;;;2.57;;
23800;SDS011;12081;48.614;10.226;2023-11-21T15:36:52;8.23;;;4.77;;
23800;SDS011;12081;48.614;10.226;2023-11-21T15:39:38;10.30;;;4.97;;
23800;SDS011;12081;48.614;10.226;2023-11-21T15:42:22;6.63;;;3.73;;
23800;SDS011;12081;48.614;10.226;2023-11-21T15:45:07;7.90;;;3.23;;
23800;SDS011;12081;48.614;10.226;2023-11-21T15:47:51;3.83;;;2.57;;
23800;SDS011;12081;48.614;10.226;2023-11-21T15:50:41;1.60;;;1.50;;
23800;SDS011;12081;48.614;10.226;2023-11-21T15:53:25;2.37;;;1.80;;
23800;SDS011;12081;48.614;10.226;2023-11-21T15:56:09;3.03;;;1.80;;
23800;SDS011;12081;48.614;10.226;2023-11-21T15:58:56;3.47;;;1.90;;
23800;SDS011;12081;48.614;10.226;2023-11-21T16:01:40;2.83;;;1.83;;
23800;SDS011;12081;48.614;10.226;2023-11-21T16:04:26;3.10;;;2.10;;
23800;SDS011;12081;48.614;10.226;2023-11-21T16:07:11;5.27;;;2.13;;
23800;SDS011;12081;48.614;10.226;2023-11-21T16:09:56;4.33;;;2.57;;
23800;SDS011;12081;48.614;10.226;2023-11-21T16:12:41;4.80;;;2.60;;
23800;SDS011;12081;48.614;10.226;2023-11-21T16:15:26;5.30;;;2.80;;
23800;SDS011;12081;48.614;10.226;2023-11-21T16:18:11;7.53;;;3.37;;
23800;SDS011;12081;48.614;10.226;2023-11-21T16:20:55;6.30;;;3.77;;
23800;SDS011;12081;48.614;10.226;2023-11-21T16:23:39;4.23;;;2.30;;
23800;SDS011;12081;48.614;10.226;2023-11-21T16:26:23;3.83;;;1.77;;
23800;SDS011;12081;48.614;10.226;2023-11-21T16:29:07;3.97;;;2.47;;
23800;SDS011;12081;48.614;10.226;2023-11-21T16:31:51;5.90;;;4.60;;
23800;SDS011;12081;48.614;10.226;2023-11-21T16:34:37;5.53;;;4.13;;
23800;SDS011;12081;48.614;10.226;2023-11-21T16:37:23;7.87;;;3.67;;
23800;SDS011;12081;48.614;10.226;2023-11-21T16:40:08;7.87;;;4.63;;
23800;SDS011;12081;48.614;10.226;2023-11-21T16:42:52;7.63;;;3.60;;
23800;SDS011;12081;48.614;10.226;2023-11-21T16:45:36;11.53;;;5.37;;
23800;SDS011;12081;48.614;10.226;2023-11-21T16:48:20;11.93;;;5.93;;
23800;SDS011;12081;48.614;10.226;2023-11-21T16:51:04;14.77;;;6.70;;
23800;SDS011;12081;48.614;10.226;2023-11-21T16:53:48;7.47;;;4.43;;
23800;SDS011;12081;48.614;10.226;2023-11-21T16:56:32;7.00;;;4.67;;
23800;SDS011;12081;48.614;10.226;2023-11-21T16:59:16;7.23;;;5.23;;
23800;SDS011;12081;48.614;10.226;2023-11-21T17:02:00;6.67;;;4.40;;
23800;SDS011;12081;48.614;10.226;2023-11-21T17:04:45;5.50;;;3.83;;
23800;SDS011;12081;48.614;10.226;2023-11-21T17:07:32;4.30;;;2.90;;
23800;SDS011;12081;48.614;10.226;2023-11-21T17:10:17;9.87;;;5.27;;
23800;SDS011;12081;48.614;10.226;2023-11-21T17:13:03;6.03;;;4.70;;
23800;SDS011;12081;48.614;10.226;2023-11-21T17:15:47;5.13;;;4.43;;
23800;SDS011;12081;48.614;10.226;2023-11-21T17:18:31;6.10;;;3.83;;
23800;SDS011;12081;48.614;10.226;2023-11-21T17:21:15;3.70;;;3.00;;
23800;SDS011;12081;48.614;10.226;2023-11-21T17:24:00;5.30;;;3.80;;
23800;SDS011;12081;48.614;10.226;2023-11-21T17:26:45;6.63;;;4.33;;
23800;SDS011;12081;48.614;10.226;2023-11-21T17:29:29;11.97;;;7.50;;
23800;SDS011;12081;48.614;10.226;2023-11-21T17:32:13;7.47;;;5.10;;
23800;SDS011;12081;48.614;10.226;2023-11-21T17:34:57;5.17;;;4.07;;
23800;SDS011;12081;48.614;10.226;2023-11-21T17:37:43;6.50;;;3.87;;
23800;SDS011;12081;48.614;10.226;2023-11-21T17:40:28;4.33;;;3.60;;
23800;SDS011;12081;48.614;10.226;2023-11-21T17:43:12;6.27;;;4.60;;
23800;SDS011;12081;48.614;10.226;2023-11-21T17:45:56;5.20;;;4.30;;
23800;SDS011;12081;48.614;10.226;2023-11-21T17:48:41;5.17;;;4.43;;
23800;SDS011;12081;48.614;10.226;2023-11-21T17:51:26;5.70;;;4.70;;
23800;SDS011;12081;48.614;10.226;2023-11-21T17:54:10;6.97;;;5.23;;
23800;SDS011;12081;48.614;10.226;2023-11-21T17:56:54;5.90;;;4.70;;
23800;SDS011;12081;48.614;10.226;2023-11-21T17:59:39;4.63;;;4.07;;
23800;SDS011;12081;48.614;10.226;2023-11-21T18:02:23;6.47;;;3.50;;
23800;SDS011;12081;48.614;10.226;2023-11-21T18:05:07;4.37;;;3.43;;
23800;SDS011;12081;48.614;10.226;2023-11-21T18:07:57;4.63;;;3.80;;
23800;SDS011;12081;48.614;10.226;2023-11-21T18:10:41;4.53;;;4.10;;
23800;SDS011;12081;48.614;10.226;2023-11-21T18:13:25;5.47;;;4.40;;
23800;SDS011;12081;48.614;10.226;2023-11-21T18:16:09;4.23;;;3.47;;
23800;SDS011;12081;48.614;10.226;2023-11-21T18:18:54;6.33;;;3.33;;
23800;SDS011;12081;48.614;10.226;2023-11-21T18:21:41;6.13;;;3.20;;
23800;SDS011;12081;48.614;10.226;2023-11-21T18:24:25;3.90;;;3.30;;
23800;SDS011;12081;48.614;10.226;2023-11-21T18:27:09;4.67;;;3.60;;
23800;SDS011;12081;48.614;10.226;2023-11-21T18:29:56;4.90;;;3.70;;
23800;SDS011;12081;48.614;10.226;2023-11-21T18:32:44;6.13;;;4.13;;
23800;SDS011;12081;48.614;10.226;2023-11-21T18:35:28;9.07;;;6.60;;
23800;SDS011;12081;48.614;10.226;2023-11-21T18:38:13;7.80;;;5.83;;
23800;SDS011;12081;48.614;10.226;2023-11-21T18:40:57;7.87;;;6.33;;
23800;SDS011;12081;48.614;10.226;2023-11-21T18:43:41;7.40;;;4.67;;
23800;SDS011;12081;48.614;10.226;2023-11-21T18:46:25;6.73;;;5.40;;
23800;SDS011;12081;48.614;10.226;2023-11-21T18:49:09;9.00;;;5.30;;
23800;SDS011;12081;48.614;10.226;2023-11-21T18:51:53;5.90;;;4.90;;
23800;SDS011;12081;48.614;10.226;2023-11-21T18:54:37;7.70;;;4.93;;
23800;SDS011;12081;48.614;10.226;2023-11-21T18:57:21;5.97;;;4.83;;
23800;SDS011;12081;48.614;10.226;2023-11-21T19:00:07;8.87;;;5.20;;
23800;SDS011;12081;48.614;10.226;2023-11-21T19:02:55;7.27;;;5.40;;
23800;SDS011;12081;48.614;10.226;2023-11-21T19:05:40;8.30;;;5.43;;
23800;SDS011;12081;48.614;10.226;2023-11-21T19:08:23;7.83;;;5.47;;
23800;SDS011;12081;48.614;10.226;2023-11-21T19:11:07;6.63;;;4.87;;
23800;SDS011;12081;48.614;10.226;2023-11-21T19:13:54;5.83;;;5.20;;
23800;SDS011;12081;48.614;10.226;2023-11-21T19:16:38;6.60;;;5.40;;
23800;SDS011;12081;48.614;10.226;2023-11-21T19:19:23;6.50;;;5.40;;
23800;SDS011;12081;48.614;10.226;2023-11-21T19:22:07;7.60;;;6.07;;
23800;SDS011;12081;48.614;10.226;2023-11-21T19:24:51;10.00;;;7.20;;
23800;SDS011;12081;48.614;10.226;2023-11-21T19:27:35;10.40;;;6.43;;
23800;SDS011;12081;48.614;10.226;2023-11-21T19:30:19;8.67;;;6.43;;
23800;SDS011;12081;48.614;10.226;2023-11-21T19:33:03;8.43;;;6.50;;